createdAt,value
2022-10-14T00:00:36.173Z,101482.00
2022-10-14T00:03:04.221Z,101489.00
2022-10-14T00:05:32.255Z,101491.00
2022-10-14T00:08:00.463Z,101488.00
2022-10-14T00:10:28.489Z,101487.00
2022-10-14T00:12:56.546Z,101482.00
2022-10-14T00:15:24.386Z,101471.00
2022-10-14T00:17:52.414Z,101461.00
2022-10-14T00:20:20.425Z,101462.00
2022-10-14T00:22:48.466Z,101453.00
2022-10-14T00:25:16.302Z,101451.00
2022-10-14T00:27:44.340Z,101442.00
2022-10-14T00:30:12.340Z,101432.00
2022-10-14T00:32:40.364Z,101436.00
2022-10-14T00:35:08.514Z,101434.00
2022-10-14T00:37:36.683Z,101431.00
2022-10-14T00:40:05.123Z,101424.00
2022-10-14T00:42:34.094Z,101425.00
2022-10-14T00:45:04.853Z,101435.00
2022-10-14T00:47:33.039Z,101429.00
2022-10-14T00:50:01.265Z,101426.00
2022-10-14T00:52:29.670Z,101421.00
2022-10-14T00:55:01.429Z,101423.00
2022-10-14T00:57:30.142Z,101426.00
2022-10-14T01:00:02.067Z,101426.00
2022-10-14T01:02:29.873Z,101425.00
2022-10-14T01:04:58.338Z,101425.00
2022-10-14T01:07:46.685Z,101417.00
2022-10-14T01:10:18.171Z,101426.00
2022-10-14T01:12:58.740Z,101423.00
2022-10-14T01:15:50.410Z,101424.00
2022-10-14T01:21:49.697Z,101428.00
2022-10-14T01:25:38.900Z,101431.00
2022-10-14T01:28:17.376Z,101415.00
2022-10-14T01:30:47.370Z,101421.00
2022-10-14T01:33:19.151Z,101415.00
2022-10-14T01:35:57.767Z,101398.00
2022-10-14T01:38:34.318Z,101404.00
2022-10-14T01:41:05.009Z,101397.00
2022-10-14T01:43:33.834Z,101398.00
2022-10-14T01:46:04.396Z,101399.00
2022-10-14T01:48:34.081Z,101389.00
2022-10-14T01:51:04.820Z,101388.00
2022-10-14T01:53:36.670Z,101387.00
2022-10-14T01:56:05.910Z,101388.00
2022-10-14T01:58:35.137Z,101376.00
2022-10-14T02:01:04.205Z,101375.00
2022-10-14T02:03:42.437Z,101380.00
2022-10-14T02:06:21.524Z,101380.00
2022-10-14T02:11:56.527Z,101379.00
2022-10-14T02:14:40.034Z,101381.00
2022-10-14T02:17:13.647Z,101375.00
2022-10-14T02:19:53.274Z,101379.00
2022-10-14T02:22:27.357Z,101378.00
2022-10-14T02:24:57.630Z,101371.00
2022-10-14T02:27:26.767Z,101359.00
2022-10-14T02:29:55.497Z,101361.00
2022-10-14T02:32:25.224Z,101355.00
2022-10-14T02:34:55.262Z,101354.00
2022-10-14T02:37:24.122Z,101349.00
2022-10-14T02:39:59.921Z,101349.00
2022-10-14T02:42:28.697Z,101341.00
2022-10-14T02:44:58.825Z,101339.00
2022-10-14T02:47:26.925Z,101336.00
2022-10-14T02:49:55.000Z,101329.00
2022-10-14T02:52:23.327Z,101329.00
2022-10-14T02:54:51.593Z,101331.00
2022-10-14T02:57:19.597Z,101325.00
2022-10-14T02:59:47.790Z,101329.00
2022-10-14T03:02:15.841Z,101325.00
2022-10-14T03:04:43.702Z,101316.00
2022-10-14T03:07:11.563Z,101308.00
2022-10-14T03:09:39.576Z,101306.00
2022-10-14T03:12:07.579Z,101298.00
2022-10-14T03:14:35.575Z,101300.00
2022-10-14T03:17:03.405Z,101306.00
2022-10-14T03:19:31.440Z,101288.00
2022-10-14T03:21:59.436Z,101287.00
2022-10-14T03:24:27.552Z,101284.00
2022-10-14T03:26:55.551Z,101287.00
2022-10-14T03:29:23.392Z,101288.00
2022-10-14T03:31:51.201Z,101279.00
2022-10-14T03:34:19.218Z,101280.00
2022-10-14T03:36:47.208Z,101276.00
2022-10-14T03:39:15.048Z,101269.00
2022-10-14T03:41:42.998Z,101266.00
2022-10-14T03:44:11.360Z,101267.00
2022-10-14T03:46:39.365Z,101264.00
2022-10-14T03:49:07.588Z,101268.00
2022-10-14T03:51:35.579Z,101261.00
2022-10-14T03:54:03.576Z,101253.00
2022-10-14T03:56:31.425Z,101247.00
2022-10-14T03:58:59.424Z,101249.00
2022-10-14T04:01:27.542Z,101245.00
2022-10-14T04:03:55.544Z,101245.00
2022-10-14T04:06:23.451Z,101237.00
2022-10-14T04:08:54.070Z,101242.00
2022-10-14T04:11:22.049Z,101240.00
2022-10-14T04:13:50.070Z,101236.00
2022-10-14T04:16:17.944Z,101228.00
2022-10-14T04:18:46.473Z,101231.00
2022-10-14T04:21:14.472Z,101227.00
2022-10-14T04:23:42.468Z,101233.00
2022-10-14T04:26:10.735Z,101222.00
2022-10-14T04:28:38.718Z,101223.00
2022-10-14T04:31:06.732Z,101227.00
2022-10-14T04:33:34.939Z,101213.00
2022-10-14T04:36:04.627Z,101214.00
2022-10-14T04:38:33.011Z,101215.00
2022-10-14T04:41:01.027Z,101211.00
2022-10-14T04:43:28.997Z,101200.00
2022-10-14T04:45:57.012Z,101203.00
2022-10-14T04:48:25.025Z,101192.00
2022-10-14T04:50:52.959Z,101189.00
2022-10-14T04:53:22.358Z,101179.00
2022-10-14T04:55:51.508Z,101179.00
2022-10-14T04:58:19.324Z,101173.00
2022-10-14T05:00:47.381Z,101169.00
2022-10-14T05:03:15.364Z,101172.00
2022-10-14T05:05:43.379Z,101166.00
2022-10-14T05:08:11.397Z,101159.00
2022-10-14T05:10:39.517Z,101160.00
2022-10-14T05:13:07.589Z,101160.00
2022-10-14T05:15:35.621Z,101156.00
2022-10-14T05:18:03.660Z,101154.00
2022-10-14T05:20:31.683Z,101162.00
2022-10-14T05:23:00.239Z,101146.00
2022-10-14T05:25:28.239Z,101144.00
2022-10-14T05:27:56.079Z,101143.00
2022-10-14T05:30:24.092Z,101145.00
2022-10-14T05:32:52.110Z,101135.00
2022-10-14T05:35:39.792Z,101127.00
2022-10-14T05:38:14.649Z,101136.00
2022-10-14T05:40:43.439Z,101128.00
2022-10-14T05:43:11.440Z,101126.00
2022-10-14T05:45:39.446Z,101120.00
2022-10-14T05:48:07.297Z,101120.00
2022-10-14T05:50:35.312Z,101122.00
2022-10-14T05:53:03.301Z,101121.00
2022-10-14T05:55:31.314Z,101121.00
2022-10-14T05:57:59.376Z,101118.00
2022-10-14T06:00:27.376Z,101123.00
2022-10-14T06:02:57.026Z,101125.00
2022-10-14T06:05:25.106Z,101120.00
2022-10-14T06:07:52.926Z,101114.00
2022-10-14T06:10:20.943Z,101116.00
2022-10-14T06:12:49.282Z,101118.00
2022-10-14T06:15:17.286Z,101109.00
2022-10-14T06:17:45.305Z,101111.00
2022-10-14T06:20:13.301Z,101112.00
2022-10-14T06:22:41.301Z,101103.00
2022-10-14T06:25:09.415Z,101096.00
2022-10-14T06:27:37.415Z,101105.00
2022-10-14T06:30:05.683Z,101103.00
2022-10-14T06:32:33.678Z,101099.00
2022-10-14T06:35:01.693Z,101091.00
2022-10-14T06:37:29.690Z,101089.00
2022-10-14T06:39:57.714Z,101087.00
2022-10-14T06:42:26.043Z,101083.00
2022-10-14T06:44:54.475Z,101081.00
2022-10-14T06:47:22.503Z,101073.00
2022-10-14T06:49:50.514Z,101081.00
2022-10-14T06:52:18.555Z,101070.00
2022-10-14T06:54:48.406Z,101076.00
2022-10-14T06:57:16.696Z,101080.00
2022-10-14T06:59:44.877Z,101073.00
2022-10-14T07:02:12.895Z,101076.00
2022-10-14T07:04:40.894Z,101070.00
2022-10-14T07:07:09.035Z,101074.00
2022-10-14T07:09:37.131Z,101067.00
2022-10-14T07:12:05.139Z,101072.00
2022-10-14T07:14:33.154Z,101068.00
2022-10-14T07:17:01.319Z,101064.00
2022-10-14T07:19:29.341Z,101063.00
2022-10-14T07:21:57.408Z,101059.00
2022-10-14T07:24:25.473Z,101062.00
2022-10-14T07:26:53.579Z,101065.00
2022-10-14T07:29:21.453Z,101064.00
2022-10-14T07:31:49.446Z,101071.00
2022-10-14T07:34:17.450Z,101070.00
2022-10-14T07:36:45.491Z,101067.00
2022-10-14T07:39:13.497Z,101079.00
2022-10-14T07:41:41.508Z,101074.00
2022-10-14T07:44:09.773Z,101071.00
2022-10-14T07:46:40.157Z,101071.00
2022-10-14T07:49:12.438Z,101064.00
2022-10-14T07:51:40.936Z,101059.00
2022-10-14T07:54:11.846Z,101058.00
2022-10-14T07:56:40.988Z,101069.00
2022-10-14T07:59:09.118Z,101064.00
2022-10-14T08:01:37.119Z,101060.00
2022-10-14T08:04:05.437Z,101060.00
2022-10-14T08:06:33.441Z,101059.00
2022-10-14T08:09:01.469Z,101062.00
2022-10-14T08:11:29.886Z,101061.00
2022-10-14T08:13:59.972Z,101055.00
2022-10-14T08:16:29.176Z,101053.00
2022-10-14T08:18:58.014Z,101055.00
2022-10-14T08:21:26.476Z,101053.00
2022-10-14T08:23:54.817Z,101055.00
2022-10-14T08:26:26.289Z,101052.00
2022-10-14T08:28:54.355Z,101058.00
2022-10-14T08:31:22.485Z,101057.00
2022-10-14T08:33:52.971Z,101053.00
2022-10-14T08:36:21.373Z,101050.00
2022-10-14T08:38:49.457Z,101047.00
2022-10-14T08:41:25.338Z,101048.00
2022-10-14T08:44:06.056Z,101049.00
2022-10-14T08:46:53.244Z,101051.00
2022-10-14T08:49:34.038Z,101051.00
2022-10-14T08:52:03.598Z,101040.00
2022-10-14T08:54:37.175Z,101037.00
2022-10-14T08:57:05.786Z,101039.00
2022-10-14T08:59:37.835Z,101043.00
2022-10-14T09:02:15.277Z,101039.00
2022-10-14T09:04:43.116Z,101038.00
2022-10-14T09:07:16.825Z,101037.00
2022-10-14T09:09:46.221Z,101040.00
2022-10-14T09:12:15.489Z,101032.00
2022-10-14T09:14:46.796Z,101029.00
2022-10-14T09:17:19.555Z,101022.00
2022-10-14T09:19:50.670Z,101025.00
2022-10-14T09:22:18.528Z,101029.00
2022-10-14T09:24:48.321Z,101024.00
2022-10-14T09:27:17.475Z,101032.00
2022-10-14T09:30:04.268Z,101034.00
2022-10-14T09:32:36.633Z,101024.00
2022-10-14T09:35:04.664Z,101024.00
2022-10-14T09:37:33.832Z,101025.00
2022-10-14T09:40:02.701Z,101035.00
2022-10-14T09:42:47.992Z,101025.00
2022-10-14T09:45:17.370Z,101023.00
2022-10-14T09:47:47.057Z,101021.00
2022-10-14T09:50:25.945Z,101021.00
2022-10-14T09:52:55.826Z,101019.00
2022-10-14T09:55:26.995Z,101021.00
2022-10-14T09:58:06.694Z,101025.00
2022-10-14T10:00:36.433Z,101026.00
2022-10-14T10:03:04.625Z,101024.00
2022-10-14T10:05:33.549Z,101015.00
2022-10-14T10:08:22.432Z,101018.00
2022-10-14T10:11:00.494Z,101027.00
2022-10-14T10:13:34.184Z,101020.00
2022-10-14T10:16:03.592Z,101015.00
2022-10-14T10:18:31.525Z,101016.00
2022-10-14T10:21:07.307Z,101012.00
2022-10-14T10:23:35.954Z,101019.00
2022-10-14T10:26:25.553Z,101000.00
2022-10-14T10:28:54.305Z,101006.00
2022-10-14T10:33:17.321Z,101010.00
2022-10-14T10:36:21.468Z,101010.00
2022-10-14T10:39:01.230Z,101004.00
2022-10-14T10:41:58.130Z,100998.00
2022-10-14T10:45:47.625Z,100999.00
2022-10-14T10:48:23.695Z,100996.00
2022-10-14T10:50:57.167Z,100993.00
2022-10-14T10:53:55.206Z,100992.00
2022-10-14T10:57:05.111Z,100995.00
2022-10-14T10:59:51.450Z,100995.00
2022-10-14T11:03:49.892Z,100995.00
2022-10-14T11:12:02.373Z,100984.00
2022-10-14T11:14:58.264Z,100981.00
2022-10-14T11:17:33.705Z,100979.00
2022-10-14T11:20:22.405Z,100971.00
2022-10-14T11:25:27.539Z,100969.00
2022-10-14T11:28:20.314Z,100965.00
2022-10-14T11:32:21.885Z,100961.00
2022-10-14T11:34:59.066Z,100949.00
2022-10-14T11:37:46.873Z,100955.00
2022-10-14T11:40:38.151Z,100939.00
2022-10-14T11:43:28.017Z,100936.00
2022-10-14T11:46:01.519Z,100923.00
2022-10-14T11:48:35.408Z,100929.00
2022-10-14T11:51:08.711Z,100917.00
2022-10-14T11:53:46.912Z,100915.00
2022-10-14T11:56:28.966Z,100907.00
2022-10-14T11:59:03.035Z,100905.00
2022-10-14T12:01:35.700Z,100907.00
2022-10-14T12:04:11.289Z,100903.00
2022-10-14T12:06:42.434Z,100907.00
2022-10-14T12:09:25.654Z,100912.00
2022-10-14T12:11:57.282Z,100904.00
2022-10-14T12:14:39.927Z,100898.00
2022-10-14T12:17:14.726Z,100900.00
2022-10-14T12:19:45.764Z,100903.00
2022-10-14T12:22:22.891Z,100898.00
2022-10-14T12:24:52.991Z,100916.00
2022-10-14T12:27:22.810Z,100913.00
2022-10-14T12:29:51.752Z,100905.00
2022-10-14T12:32:21.775Z,100910.00
2022-10-14T12:34:57.154Z,100910.00
2022-10-14T12:37:45.990Z,100916.00
2022-10-14T12:40:22.666Z,100908.00
2022-10-14T12:42:58.764Z,100905.00
2022-10-14T12:45:28.207Z,100905.00
2022-10-14T12:48:29.069Z,100901.00
2022-10-14T12:51:07.103Z,100903.00
2022-10-14T12:53:35.818Z,100903.00
2022-10-14T12:56:04.792Z,100891.00
2022-10-14T12:58:35.697Z,100904.00
2022-10-14T13:01:14.683Z,100895.00
2022-10-14T13:03:56.813Z,100899.00
2022-10-14T13:06:35.620Z,100896.00
2022-10-14T13:10:04.087Z,100897.00
2022-10-14T13:12:41.558Z,100902.00
2022-10-14T13:15:27.752Z,100905.00
2022-10-14T13:17:55.914Z,100904.00
2022-10-14T13:22:15.963Z,100906.00
2022-10-14T13:24:44.051Z,100903.00
2022-10-14T13:27:30.377Z,100913.00
2022-10-14T13:30:05.302Z,100912.00
2022-10-14T13:32:55.448Z,100906.00
2022-10-14T13:35:38.542Z,100906.00
2022-10-14T13:38:17.551Z,100900.00
2022-10-14T13:41:03.906Z,100906.00
2022-10-14T13:43:52.260Z,100896.00
2022-10-14T13:46:42.047Z,100890.00
2022-10-14T13:51:56.041Z,100887.00
2022-10-14T13:54:25.211Z,100891.00
2022-10-14T13:57:38.195Z,100887.00
2022-10-14T14:01:37.253Z,100879.00
2022-10-14T14:04:05.477Z,100878.00
2022-10-14T14:06:45.303Z,100884.00
2022-10-14T14:09:31.973Z,100874.00
2022-10-14T14:12:01.655Z,100882.00
2022-10-14T14:14:41.320Z,100879.00
2022-10-14T14:17:25.209Z,100878.00
2022-10-14T14:19:53.700Z,100872.00
2022-10-14T14:22:28.614Z,100877.00
2022-10-14T14:25:33.422Z,100887.00
2022-10-14T14:28:02.869Z,100880.00
2022-10-14T14:30:32.064Z,100884.00
2022-10-14T14:33:01.995Z,100873.00
2022-10-14T14:35:30.313Z,100874.00
2022-10-14T14:37:58.512Z,100873.00
2022-10-14T14:40:28.385Z,100868.00
2022-10-14T14:43:00.436Z,100873.00
2022-10-14T14:45:30.676Z,100869.00
2022-10-14T14:48:02.370Z,100874.00
2022-10-14T14:50:43.633Z,100874.00
2022-10-14T14:53:13.832Z,100870.00
2022-10-14T14:55:47.130Z,100865.00
2022-10-14T14:58:23.464Z,100867.00
2022-10-14T15:00:52.643Z,100858.00
2022-10-14T15:03:21.340Z,100868.00
2022-10-14T15:05:50.424Z,100858.00
2022-10-14T15:08:22.495Z,100855.00
2022-10-14T15:10:51.030Z,100850.00
2022-10-14T15:13:27.264Z,100842.00
2022-10-14T15:15:55.269Z,100847.00
2022-10-14T15:18:30.257Z,100837.00
2022-10-14T15:21:20.996Z,100832.00
2022-10-14T15:24:06.696Z,100836.00
2022-10-14T15:26:35.747Z,100832.00
2022-10-14T15:29:22.514Z,100821.00
2022-10-14T15:32:11.725Z,100825.00
2022-10-14T15:34:39.709Z,100820.00
2022-10-14T15:37:12.350Z,100813.00
2022-10-14T15:39:40.396Z,100808.00
2022-10-14T15:42:13.828Z,100794.00
2022-10-14T15:44:41.816Z,100793.00
2022-10-14T15:47:21.428Z,100786.00
2022-10-14T15:49:50.243Z,100785.00
2022-10-14T15:52:20.399Z,100787.00
2022-10-14T15:54:50.860Z,100789.00
2022-10-14T15:57:18.875Z,100788.00
2022-10-14T15:59:47.508Z,100792.00
2022-10-14T16:02:22.312Z,100790.00
2022-10-14T16:05:18.376Z,100787.00
2022-10-14T16:07:48.150Z,100785.00
2022-10-14T16:10:17.895Z,100789.00
2022-10-14T16:12:46.290Z,100789.00
2022-10-14T16:15:22.109Z,100776.00
2022-10-14T16:17:52.815Z,100778.00
2022-10-14T16:20:21.389Z,100779.00
2022-10-14T16:22:49.717Z,100782.00
2022-10-14T16:25:25.812Z,100775.00
2022-10-14T16:27:53.834Z,100767.00
2022-10-14T16:30:21.840Z,100772.00
2022-10-14T16:32:50.921Z,100780.00
2022-10-14T16:35:18.914Z,100771.00
2022-10-14T16:37:46.978Z,100768.00
2022-10-14T16:40:15.010Z,100777.00
2022-10-14T16:42:42.847Z,100784.00
2022-10-14T16:45:11.149Z,100781.00
2022-10-14T16:47:39.600Z,100781.00
2022-10-14T16:50:07.893Z,100787.00
2022-10-14T16:52:53.822Z,100781.00
2022-10-14T16:55:22.661Z,100786.00
2022-10-14T16:57:50.669Z,100769.00
2022-10-14T17:02:46.773Z,100770.00
2022-10-14T17:05:15.181Z,100764.00
2022-10-14T17:07:43.530Z,100772.00
2022-10-14T17:10:11.562Z,100769.00
2022-10-14T17:12:39.632Z,100779.00
2022-10-14T17:15:07.759Z,100777.00
2022-10-14T17:17:35.770Z,100783.00
2022-10-14T17:20:03.871Z,100787.00
2022-10-14T17:22:31.709Z,100787.00
2022-10-14T17:25:00.209Z,100793.00
2022-10-14T17:27:28.256Z,100798.00
2022-10-14T17:29:56.280Z,100788.00
2022-10-14T17:32:24.639Z,100801.00
2022-10-14T17:34:53.565Z,100799.00
2022-10-14T17:37:21.721Z,100798.00
2022-10-14T17:39:49.765Z,100797.00
2022-10-14T17:42:17.817Z,100797.00
2022-10-14T17:44:45.855Z,100791.00
2022-10-14T17:47:13.909Z,100799.00
2022-10-14T17:49:41.932Z,100799.00
2022-10-14T17:52:10.915Z,100797.00
2022-10-14T17:54:38.948Z,100793.00
2022-10-14T17:57:06.990Z,100791.00
2022-10-14T17:59:34.985Z,100785.00
2022-10-14T18:02:04.113Z,100783.00
2022-10-14T18:04:32.623Z,100773.00
2022-10-14T18:07:01.008Z,100771.00
2022-10-14T18:09:29.010Z,100777.00
2022-10-14T18:12:13.153Z,100773.00
2022-10-14T18:14:41.935Z,100770.00
2022-10-14T18:17:11.711Z,100771.00
2022-10-14T18:19:40.707Z,100770.00
2022-10-14T18:22:10.819Z,100773.00
2022-10-14T18:24:38.903Z,100762.00
2022-10-14T18:27:06.924Z,100768.00
2022-10-14T18:29:34.955Z,100772.00
2022-10-14T18:32:02.986Z,100768.00
2022-10-14T18:34:30.983Z,100766.00
2022-10-14T18:36:58.986Z,100769.00
2022-10-14T18:39:27.011Z,100767.00
2022-10-14T18:41:55.047Z,100764.00
2022-10-14T18:44:22.886Z,100767.00
2022-10-14T18:46:50.914Z,100773.00
2022-10-14T18:49:18.959Z,100775.00
2022-10-14T18:51:46.988Z,100774.00
2022-10-14T18:54:16.358Z,100765.00
2022-10-14T18:56:44.670Z,100761.00
2022-10-14T18:59:14.306Z,100764.00
2022-10-14T19:01:42.980Z,100759.00
2022-10-14T19:04:14.531Z,100767.00
2022-10-14T19:06:45.656Z,100768.00
2022-10-14T19:09:14.269Z,100771.00
2022-10-14T19:11:43.045Z,100770.00
2022-10-14T19:14:11.113Z,100773.00
2022-10-14T19:16:39.343Z,100774.00
2022-10-14T19:19:14.009Z,100772.00
2022-10-14T19:21:42.910Z,100763.00
2022-10-14T19:24:11.503Z,100771.00
2022-10-14T19:26:41.174Z,100765.00
2022-10-14T19:29:11.787Z,100771.00
2022-10-14T19:31:40.101Z,100780.00
2022-10-14T19:34:08.960Z,100770.00
2022-10-14T19:36:38.062Z,100775.00
2022-10-14T19:39:07.498Z,100765.00
2022-10-14T19:41:42.256Z,100758.00
2022-10-14T19:44:11.076Z,100751.00
2022-10-14T19:46:39.013Z,100753.00
2022-10-14T19:49:07.029Z,100756.00
2022-10-14T19:51:35.294Z,100751.00
2022-10-14T19:54:03.313Z,100757.00
2022-10-14T19:56:31.189Z,100747.00
2022-10-14T19:58:59.490Z,100741.00
2022-10-14T20:01:28.959Z,100740.00
2022-10-14T20:03:57.086Z,100730.00
2022-10-14T20:06:25.136Z,100733.00
2022-10-14T20:08:53.157Z,100732.00
2022-10-14T20:11:23.167Z,100728.00
2022-10-14T20:13:51.181Z,100737.00
2022-10-14T20:16:19.044Z,100731.00
2022-10-14T20:18:47.162Z,100737.00
2022-10-14T20:21:15.920Z,100733.00
2022-10-14T20:23:44.268Z,100729.00
2022-10-14T20:26:13.501Z,100739.00
2022-10-14T20:28:42.082Z,100739.00
2022-10-14T20:31:11.103Z,100732.00
2022-10-14T20:33:39.371Z,100725.00
2022-10-14T20:36:09.120Z,100725.00
2022-10-14T20:38:40.297Z,100728.00
2022-10-14T20:41:12.627Z,100725.00
2022-10-14T20:43:41.572Z,100730.00
2022-10-14T20:46:10.202Z,100730.00
2022-10-14T20:48:40.693Z,100731.00
2022-10-14T20:51:10.268Z,100731.00
2022-10-14T20:53:38.438Z,100722.00
2022-10-14T20:56:10.888Z,100728.00
2022-10-14T20:58:38.933Z,100733.00
2022-10-14T21:01:08.420Z,100736.00
2022-10-14T21:03:36.627Z,100734.00
2022-10-14T21:06:08.911Z,100739.00
2022-10-14T21:08:37.246Z,100742.00
2022-10-14T21:11:09.218Z,100739.00
2022-10-14T21:13:41.037Z,100737.00
2022-10-14T21:16:15.821Z,100742.00
2022-10-14T21:18:52.414Z,100740.00
2022-10-14T21:21:29.682Z,100743.00
2022-10-14T21:24:04.662Z,100742.00
2022-10-14T21:26:38.721Z,100739.00
2022-10-14T21:29:06.731Z,100732.00
2022-10-14T21:31:34.567Z,100736.00
2022-10-14T21:34:06.426Z,100733.00
2022-10-14T21:36:38.065Z,100733.00
2022-10-14T21:39:10.047Z,100727.00
2022-10-14T21:41:38.385Z,100725.00
2022-10-14T21:44:06.566Z,100724.00
2022-10-14T21:46:34.887Z,100717.00
2022-10-14T21:49:02.891Z,100712.00
2022-10-14T21:51:30.911Z,100708.00
2022-10-14T21:53:59.046Z,100711.00
2022-10-14T21:56:27.338Z,100715.00
2022-10-14T21:58:55.273Z,100712.00
2022-10-14T22:01:26.776Z,100718.00
2022-10-14T22:03:55.925Z,100706.00
2022-10-14T22:06:24.000Z,100712.00
2022-10-14T22:08:52.763Z,100702.00
2022-10-14T22:11:22.078Z,100691.00
2022-10-14T22:13:50.553Z,100704.00
2022-10-14T22:16:18.586Z,100700.00
2022-10-14T22:18:47.206Z,100701.00
2022-10-14T22:21:15.697Z,100701.00
2022-10-14T22:23:43.795Z,100709.00
2022-10-14T22:26:13.428Z,100706.00
2022-10-14T22:28:41.567Z,100695.00
2022-10-14T22:31:10.300Z,100699.00
2022-10-14T22:33:39.125Z,100691.00
2022-10-14T22:36:11.282Z,100691.00
2022-10-14T22:38:40.313Z,100686.00
2022-10-14T22:41:08.863Z,100682.00
2022-10-14T22:43:37.134Z,100685.00
2022-10-14T22:46:12.400Z,100682.00
2022-10-14T22:48:40.502Z,100682.00
2022-10-14T22:51:10.017Z,100677.00
2022-10-14T22:53:38.440Z,100677.00
2022-10-14T22:56:07.089Z,100668.00
2022-10-14T22:58:37.136Z,100673.00
2022-10-14T23:01:08.357Z,100666.00
2022-10-14T23:03:36.587Z,100665.00
2022-10-14T23:06:06.078Z,100665.00
2022-10-14T23:08:34.135Z,100659.00
2022-10-14T23:11:02.517Z,100661.00
2022-10-14T23:13:30.786Z,100666.00
2022-10-14T23:16:02.660Z,100669.00
2022-10-14T23:18:32.260Z,100671.00
2022-10-14T23:21:06.853Z,100663.00
2022-10-14T23:23:34.972Z,100659.00
2022-10-14T23:26:02.997Z,100665.00
2022-10-14T23:28:31.042Z,100666.00
2022-10-14T23:30:59.076Z,100666.00
2022-10-14T23:33:27.064Z,100667.00
2022-10-14T23:35:55.085Z,100659.00
2022-10-14T23:38:23.114Z,100659.00
2022-10-14T23:40:50.766Z,100660.00
2022-10-14T23:43:19.008Z,100656.00
2022-10-14T23:45:48.286Z,100655.00
2022-10-14T23:48:16.327Z,100661.00
2022-10-14T23:50:44.485Z,100657.00
2022-10-14T23:53:12.657Z,100651.00
2022-10-14T23:55:41.858Z,100660.00
2022-10-14T23:58:09.897Z,100653.00
